Погода Усташевона 2 недели

Куявско-Поморское воеводство, Польша

15 - 28 июля
  • 15июля
    Сегодня
    +18°
    +28°
    Практически безоблачно
    ВремяПогодаТемператураВлажностьДавлениеВетер, м/сВероятность осадков
    02:00Облачно с прояснениями+16°C96 %755 мм1.4 м/с3 %
    05:00Ясно и безоблачно+16°C97 %755 мм1.5 м/с2 %
    08:00Ясно и безоблачно+20°C81 %756 мм1.3 м/с2 %
    11:00Ясно и безоблачно+24°C62 %755 мм0.8 м/с2 %
    14:00Практически безоблачно+27°C43 %755 мм1.1 м/с2 %
    17:00Практически безоблачно+28°C45 %755 мм2.6 м/с2 %
    20:00Облачно с прояснениями+25°C64 %754 мм2.0 м/с2 %
    23:00Практически безоблачно+21°C65 %754 мм3.3 м/с2 %
  • 16июля
    Вторник
    +17°
    +31°
    Пасмурно, дожди с грозами
    ВремяПогодаТемператураВлажностьДавлениеВетер, м/сВероятность осадков
    02:00Ясно и безоблачно+19°C68 %754 мм3.7 м/с2 %
    05:00Небольшая облачность+19°C76 %753 мм3.4 м/с2 %
    08:00Ясно и безоблачно+22°C76 %753 мм3.8 м/с2 %
    11:00Облачно с прояснениями+28°C64 %752 мм4.6 м/с2 %
    14:00Пасмурно, дожди с грозами+27°C73 %752 мм5.6 м/с59 %
    17:00Пасмурно, дождь+26°C77 %751 мм2.7 м/с81 %
    20:00Облачно с прояснениями+22°C85 %752 мм2.8 м/с38 %
    23:00Практически безоблачно+20°C87 %753 мм3.2 м/с10 %
  • 17июля
    Среда
    +15°
    +26°
    Практически безоблачно
    ВремяПогодаТемператураВлажностьДавлениеВетер, м/сВероятность осадков
    02:00Ясно и безоблачно+18°C93 %754 мм2.5 м/с3 %
    05:00Ясно и безоблачно+18°C92 %755 мм2.8 м/с2 %
    08:00Облачно с прояснениями+20°C74 %757 мм3.2 м/с2 %
    11:00Практически безоблачно+23°C57 %757 мм4.3 м/с2 %
    14:00Практически безоблачно+26°C49 %758 мм5.3 м/с5 %
    17:00Облачно с прояснениями+25°C46 %758 мм5.5 м/с4 %
    20:00Ясно и безоблачно+22°C61 %758 мм2.3 м/с2 %
    23:00Ясно и безоблачно+19°C75 %759 мм2.2 м/с2 %
  • 18июля
    Четверг
    +15°
    +26°
    Облачно с прояснениями
    ВремяПогодаТемператураВлажностьДавлениеВетер, м/сВероятность осадков
    02:00Ясно и безоблачно+17°C78 %759 мм0.8 м/с2 %
    05:00Ясно и безоблачно+15°C91 %760 мм1.9 м/с2 %
    08:00Ясно и безоблачно+19°C72 %760 мм1.3 м/с2 %
    11:00Практически безоблачно+23°C56 %761 мм2.0 м/с3 %
    14:00Облачно с прояснениями+25°C49 %760 мм3.2 м/с11 %
    17:00Небольшая облачность+25°C50 %760 мм3.2 м/с10 %
    20:00Облачно с прояснениями+23°C65 %760 мм2.0 м/с2 %
    23:00Небольшая облачность+18°C81 %760 мм2.0 м/с2 %
  • 19июля
    Пятница
    +15°
    +26°
    Практически безоблачно
    ВремяПогодаТемператураВлажностьДавлениеВетер, м/сВероятность осадков
    02:00Ясно и безоблачно+16°C92 %760 мм1.9 м/с2 %
    05:00Ясно и безоблачно+16°C94 %760 мм1.7 м/с2 %
    08:00Ясно и безоблачно+19°C74 %760 мм1.8 м/с2 %
    11:00Практически безоблачно+23°C60 %760 мм2.3 м/с10 %
    14:00Практически безоблачно+25°C54 %759 мм2.6 м/с22 %
    17:00Ясно и безоблачно+25°C47 %758 мм2.3 м/с14 %
    20:00Ясно и безоблачно+23°C65 %758 мм1.4 м/с2 %
    23:00Ясно и безоблачно+19°C76 %757 мм2.3 м/с2 %
Мы используем cookies
Соглашаюсь